• pl
  • eng

Awiacja
NEWS
last updated: 12.09.2019 14:49<\/div>
Dear users,
We would like to inform you that from September 2nd a test form of the GAFOR forecast is available on our webpage. Please send your comments and suggestions to gafor@imgw.pl that will contribute to product development.
Click on the bold red name to decode a message. 11:31 04.08.2020
  • WIND
  • SIGNIFICANT EURO
  • SIGNIFICANT
  • SIGMET
  • AIRMET
  • TAF FC
  • TAF FT
  • METAR GG30
  • METAR GG00


METAR EPBY 040930Z 35007KT 9999 -RA NSC 17/14 Q1010=

METAR EPGD 040930Z 31012KT 9999 FEW018 SCT022 18/14 Q1010 =

METAR EPKK 040930Z 27005KT 7000 FEW006 BKN008 18/17 Q1007 =

METAR EPKT 040930Z 31006KT 290V350 9000 -RA BKN003 16/16 Q1007 =

METAR EPLB 040930Z 17003KT CAVOK 24/16 Q1007 =

METAR EPLL 040930Z 01005KT 340V040 2400 +RA BR BKN003 BKN008 17/17
Q1008 =

METAR EPMO 040930Z 04009KT 2300 RA BR BKN006 BKN015 17/17 Q1008 RERA
=

METAR EPPO 040930Z 34005KT CAVOK 17/13 Q1011 =

METAR EPRA 040930Z NIL=

METAR EPRZ 040930Z 11006KT 9999 FEW050CB 21/19 Q1007 =

METAR EPSC 040930Z 32012KT 290V360 9999 FEW036 19/09 Q1013 =

METAR EPSY 040930Z 28003KT 9000 -RA FEW007 BKN012 17/16 Q1009=

METAR EPWA 040930Z 03009KT 7000 -RA SCT006 18/17 Q1008 TEMPO BKN006=

METAR EPWR 040930Z 34011KT 8000 -RA BKN005 15/14 Q1010 =

METAR EPZG 040930Z 33007KT 290V010 CAVOK 17/14 Q1012 =
 METAR EPWA
Location:EPWA Warsaw
Time:09:30 UTC
Average wind direction:30 °
Mean wind speed:9 knots
Visibility:7 kilometers
Precipitation:rain
Intensity:weak
First layer of clouds:3/8 do 4/8, base 600 FT
Temperature:18 °C
Dew point:17 °C
QNH:1008 hPa
 TREND:In the next two hours will be changed
TREND: Average wind speed:silence
TREND: First layer of clouds:5/8 do 7/8, base 600 FT
Awiacja.imgw.pl jest pogodowym serwisem informacyjnym
Instytutu Meteorologii i Gospodarki Wodnej Państwowego Instytutu Badawczego.
Copyright IMGW PIB 2009-2019© Wszelkie prawa zastrzeżone.